Time;durP1;ratioP1;P1;durP2;ratioP2;P2;SDS_P1;SDS_P2;PMS_P1;PMS_P2;Temp;Humidity;BMP_temperature;BMP_pressure;BME280_temperature;BME280_humidity;BME280_pressure;Samples;Min_cycle;Max_cycle;Signal;HPM_P1;HPM_P2
2022/04/05 00:01:56;;;;;;;;;;;10.00;99.90;;;;;;5073438;28;19956;-84
2022/04/05 00:04:22;;;;;;;;;;;10.00;99.90;;;;;;5072184;28;19916;-83
2022/04/05 00:06:47;;;;;;;;;;;9.90;99.90;;;;;;5073500;28;19982;-83
2022/04/05 00:09:13;;;;;;;;;;;10.00;99.90;;;;;;5072138;28;20370;-84
2022/04/05 00:11:39;;;;;;;;;;;10.00;99.90;;;;;;5073450;28;19931;-83
2022/04/05 00:14:04;;;;;;;;;;;10.00;99.90;;;;;;5073384;28;19908;-82
2022/04/05 00:16:30;;;;;;;;;;;10.00;99.90;;;;;;5072042;28;19915;-84
2022/04/05 00:18:55;;;;;;;;;;;10.10;99.90;;;;;;5071835;28;19959;-82
2022/04/05 00:21:21;;;;;;;;;;;10.00;99.90;;;;;;5073422;28;19913;-82
2022/04/05 00:23:46;;;;;;;;;;;10.10;99.90;;;;;;5073304;28;20369;-83
2022/04/05 00:26:12;;;;;;;;;;;10.00;99.90;;;;;;5073263;28;19909;-84
2022/04/05 00:28:38;;;;;;;;;;;9.90;99.90;;;;;;5073261;28;19912;-82
2022/04/05 00:31:03;;;;;;;;;;;10.00;99.90;;;;;;5071921;28;19908;-83
2022/04/05 00:33:29;;;;;;;;;;;9.90;99.90;;;;;;5073247;28;19912;-83
2022/04/05 00:35:55;;;;;;;;;;;10.00;99.90;;;;;;5073142;28;19913;-84
2022/04/05 00:38:20;;;;;;;;;;;10.00;99.90;;;;;;5073218;28;19916;-82
2022/04/05 00:40:46;;;;;;;;;;;9.90;99.90;;;;;;5071751;28;19966;-82
2022/04/05 00:43:11;;;;;;;;;;;9.90;99.90;;;;;;5071832;28;19941;-83
2022/04/05 00:45:37;;;;;;;;;;;9.90;99.90;;;;;;5073162;28;19909;-84
2022/04/05 00:48:04;;;;;;;;;;;9.80;99.90;;;;;;5071880;28;19909;-84
2022/04/05 00:50:32;;;;;;;;;;;9.90;99.90;;;;;;5076838;28;19931;-83
2022/04/05 00:53:02;;;;;;;;;;;10.00;99.90;;;;;;5075469;28;20262;-84
2022/04/05 00:55:28;;;;;;;;;;;10.10;99.90;;;;;;5075334;28;19931;-83
2022/04/05 00:57:55;;;;;;;;;;;10.10;99.90;;;;;;5076603;28;19909;-83
2022/04/05 01:00:21;;;;;;;;;;;10.00;99.90;;;;;;5075261;28;20011;-82
2022/04/05 01:02:48;;;;;;;;;;;9.90;99.90;;;;;;5075904;28;20079;-81
2022/04/05 01:05:15;;;;;;;;;;;9.80;99.90;;;;;;5075221;28;19909;-82
2022/04/05 01:07:41;;;;;;;;;;;9.90;99.90;;;;;;5076430;28;19915;-83
2022/04/05 01:10:07;;;;;;;;;;;9.90;99.90;;;;;;5075117;28;20347;-83
2022/04/05 01:12:33;;;;;;;;;;;9.90;99.90;;;;;;5076536;28;19915;-82
2022/04/05 01:14:59;;;;;;;;;;;9.90;99.90;;;;;;5076362;28;19912;-83
2022/04/05 01:17:25;;;;;;;;;;;9.90;99.90;;;;;;5076281;28;19909;-83
2022/04/05 01:19:51;;;;;;;;;;;9.80;99.90;;;;;;5094557;28;19920;-83
2022/04/05 01:22:16;;;;;;;;;;;9.80;99.90;;;;;;5096374;28;19912;-83
2022/04/05 01:24:42;;;;;;;;;;;10.00;99.90;;;;;;5096392;28;20368;-82
2022/04/05 01:27:08;;;;;;;;;;;10.00;99.90;;;;;;5078196;28;19988;-83
2022/04/05 01:29:34;;;;;;;;;;;10.00;99.90;;;;;;5078163;28;20447;-82
2022/04/05 01:32:09;;;;;;;;;;;9.90;99.90;;;;;;5096300;28;19908;-82
2022/04/05 01:34:35;;;;;;;;;;;9.90;99.90;;;;;;5077809;28;20292;-83
2022/04/05 01:37:01;;;;;;;;;;;9.90;99.90;;;;;;5096155;28;20025;-82
2022/04/05 01:39:28;;;;;;;;;;;9.90;99.90;;;;;;5096131;28;20354;-82
2022/04/05 01:41:55;;;;;;;;;;;9.80;99.90;;;;;;5077825;28;19919;-84
2022/04/05 01:44:21;;;;;;;;;;;9.90;99.90;;;;;;5095990;28;20356;-83
2022/04/05 01:46:46;;;;;;;;;;;10.00;99.90;;;;;;5096137;28;19908;-84
2022/04/05 01:49:15;;;;;;;;;;;10.00;99.90;;;;;;5095896;28;20271;-83
2022/04/05 01:51:42;;;;;;;;;;;10.10;99.90;;;;;;5095863;28;19915;-82
2022/04/05 01:54:08;;;;;;;;;;;10.10;99.90;;;;;;5077631;28;19948;-82
2022/04/05 01:56:39;;;;;;;;;;;10.10;99.90;;;;;;5095972;28;19915;-82
2022/04/05 01:59:05;;;;;;;;;;;10.30;99.90;;;;;;5077434;28;20002;-82
2022/04/05 02:01:30;;;;;;;;;;;10.20;99.90;;;;;;5094728;28;20344;-82
2022/04/05 02:03:56;;;;;;;;;;;10.20;99.90;;;;;;5095693;28;19914;-84
2022/04/05 02:06:22;;;;;;;;;;;10.20;99.90;;;;;;5077411;28;19915;-83
2022/04/05 02:08:47;;;;;;;;;;;10.20;99.90;;;;;;5095565;28;19956;-84
2022/04/05 02:11:13;;;;;;;;;;;10.20;99.90;;;;;;5095572;28;19915;-83
2022/04/05 02:13:38;;;;;;;;;;;10.20;99.90;;;;;;5095450;28;19918;-82
2022/04/05 02:16:04;;;;;;;;;;;10.10;99.90;;;;;;5095408;28;20384;-84
2022/04/05 02:18:30;;;;;;;;;;;10.20;99.90;;;;;;5095098;28;19920;-84
2022/04/05 02:20:56;;;;;;;;;;;10.20;99.90;;;;;;5077110;28;19920;-83
2022/04/05 02:23:21;;;;;;;;;;;10.10;99.90;;;;;;5095285;28;19998;-83
2022/04/05 02:25:47;;;;;;;;;;;10.10;99.90;;;;;;5095222;28;19908;-83
2022/04/05 02:28:13;;;;;;;;;;;10.10;99.90;;;;;;5095295;28;19948;-82
2022/04/05 02:30:39;;;;;;;;;;;10.10;99.90;;;;;;5095209;28;20364;-83
2022/04/05 02:33:04;;;;;;;;;;;10.10;99.90;;;;;;5095109;28;19912;-81
2022/04/05 02:35:30;;;;;;;;;;;10.20;99.90;;;;;;5076861;28;19908;-84
2022/04/05 02:37:59;;;;;;;;;;;10.20;99.90;;;;;;5095010;28;20005;-84
2022/04/05 02:40:25;;;;;;;;;;;10.30;99.90;;;;;;5076635;28;20284;-81
2022/04/05 02:42:51;;;;;;;;;;;10.20;99.90;;;;;;5076751;28;20383;-83
2022/04/05 02:45:17;;;;;;;;;;;10.30;99.90;;;;;;5095046;28;19908;-82
2022/04/05 02:47:42;;;;;;;;;;;10.20;99.90;;;;;;5095125;28;19908;-83
2022/04/05 02:50:08;;;;;;;;;;;10.30;99.90;;;;;;5094741;28;19919;-82
2022/04/05 02:52:34;;;;;;;;;;;10.20;99.90;;;;;;5094781;28;20287;-82
2022/04/05 02:55:00;;;;;;;;;;;10.30;99.90;;;;;;5094614;28;19908;-83
2022/04/05 02:57:25;;;;;;;;;;;10.30;99.90;;;;;;5095039;28;19912;-83
2022/04/05 02:59:51;;;;;;;;;;;10.40;99.90;;;;;;5094599;28;19939;-83
2022/04/05 03:02:16;;;;;;;;;;;10.30;99.90;;;;;;5076096;28;19935;-82
2022/04/05 03:04:42;;;;;;;;;;;10.40;99.90;;;;;;5094510;28;19957;-83
2022/04/05 03:07:07;;;;;;;;;;;10.40;99.90;;;;;;5094436;28;19908;-82
2022/04/05 03:09:33;;;;;;;;;;;10.40;99.90;;;;;;5094394;28;19957;-83
2022/04/05 03:11:59;;;;;;;;;;;10.30;99.90;;;;;;5094212;28;19912;-84
2022/04/05 03:14:24;;;;;;;;;;;10.30;99.90;;;;;;5094412;28;19915;-83
2022/04/05 03:16:50;;;;;;;;;;;10.20;99.90;;;;;;5093011;28;19908;-83
2022/04/05 03:19:15;;;;;;;;;;;10.30;99.90;;;;;;5094024;28;20320;-83
2022/04/05 03:21:41;;;;;;;;;;;10.30;99.90;;;;;;5094102;28;19919;-82
2022/04/05 03:24:06;;;;;;;;;;;10.40;99.90;;;;;;5094361;28;19958;-82
2022/04/05 03:26:32;;;;;;;;;;;10.40;99.90;;;;;;5094143;28;20003;-83
2022/04/05 03:28:58;;;;;;;;;;;10.50;99.90;;;;;;5075940;28;19909;-81
2022/04/05 03:31:24;;;;;;;;;;;10.40;99.90;;;;;;5094234;28;20348;-83
2022/04/05 03:33:49;;;;;;;;;;;10.50;99.90;;;;;;5094336;28;19919;-83
2022/04/05 03:36:15;;;;;;;;;;;10.40;99.90;;;;;;5075841;28;19908;-83
2022/04/05 03:38:41;;;;;;;;;;;10.50;99.90;;;;;;5094050;28;19908;-83
2022/04/05 03:41:06;;;;;;;;;;;10.40;99.90;;;;;;5094092;28;19912;-82
2022/04/05 03:43:32;;;;;;;;;;;10.50;99.90;;;;;;5093899;28;19908;-83
2022/04/05 03:45:57;;;;;;;;;;;10.40;99.90;;;;;;5093988;28;20380;-83
2022/04/05 03:48:23;;;;;;;;;;;10.30;99.90;;;;;;5093805;28;19908;-83
2022/04/05 03:50:49;;;;;;;;;;;10.40;99.90;;;;;;5093803;28;19919;-82
2022/04/05 03:53:15;;;;;;;;;;;10.40;99.90;;;;;;5094188;28;20408;-83
2022/04/05 03:55:42;;;;;;;;;;;10.40;99.90;;;;;;5093710;28;19908;-82
2022/04/05 03:58:08;;;;;;;;;;;10.50;99.90;;;;;;5093748;28;19908;-82
2022/04/05 04:00:34;;;;;;;;;;;10.50;99.90;;;;;;5093628;28;19919;-82
2022/04/05 04:02:59;;;;;;;;;;;10.60;99.90;;;;;;5093668;28;20379;-84
2022/04/05 04:05:25;;;;;;;;;;;10.60;99.90;;;;;;5093717;28;19919;-82
2022/04/05 04:07:51;;;;;;;;;;;10.70;99.90;;;;;;5093905;28;19916;-84
2022/04/05 04:10:16;;;;;;;;;;;10.70;99.90;;;;;;5093608;28;20372;-83
2022/04/05 04:12:42;;;;;;;;;;;10.70;99.90;;;;;;5075504;28;19941;-83
2022/04/05 04:15:08;;;;;;;;;;;10.80;99.90;;;;;;5093620;28;19991;-83
2022/04/05 04:17:33;;;;;;;;;;;10.80;99.90;;;;;;5093568;28;19981;-82
2022/04/05 04:19:59;;;;;;;;;;;10.80;99.90;;;;;;5093323;28;19968;-82
2022/04/05 04:22:26;;;;;;;;;;;10.80;99.90;;;;;;5093537;28;20327;-82
2022/04/05 04:24:53;;;;;;;;;;;10.90;99.90;;;;;;5096777;28;20261;-81
2022/04/05 04:27:18;;;;;;;;;;;10.80;99.90;;;;;;5097548;28;20425;-83
2022/04/05 04:29:44;;;;;;;;;;;10.70;99.90;;;;;;5097499;28;19997;-83
2022/04/05 04:32:09;;;;;;;;;;;10.70;99.90;;;;;;5097585;28;20002;-83
2022/04/05 04:34:35;;;;;;;;;;;10.70;99.90;;;;;;5097380;28;20277;-83
2022/04/05 04:37:02;;;;;;;;;;;10.70;99.90;;;;;;5079125;28;19908;-83
2022/04/05 04:39:28;;;;;;;;;;;10.80;99.90;;;;;;5097305;28;19908;-83
2022/04/05 04:41:56;;;;;;;;;;;10.80;99.90;;;;;;5078983;28;19918;-82
2022/04/05 04:44:22;;;;;;;;;;;10.80;99.90;;;;;;5097775;28;20375;-83
2022/04/05 04:46:47;;;;;;;;;;;10.70;99.90;;;;;;5078991;28;19908;-83
2022/04/05 04:49:13;;;;;;;;;;;10.80;99.90;;;;;;5097168;28;20275;-82
2022/04/05 04:51:38;;;;;;;;;;;10.70;99.90;;;;;;5097055;28;19912;-81
2022/04/05 04:54:04;;;;;;;;;;;10.70;99.90;;;;;;5097168;28;19908;-82
2022/04/05 04:56:30;;;;;;;;;;;10.70;99.90;;;;;;5078825;28;19909;-83
2022/04/05 04:58:55;;;;;;;;;;;10.80;99.90;;;;;;5097028;28;19908;-84
2022/04/05 05:01:21;;;;;;;;;;;10.80;99.90;;;;;;5096773;28;19946;-83
2022/04/05 05:03:46;;;;;;;;;;;10.80;99.90;;;;;;5078726;28;19908;-82
2022/04/05 05:06:12;;;;;;;;;;;10.80;99.90;;;;;;5097000;28;19930;-84
2022/04/05 05:08:37;;;;;;;;;;;10.80;99.90;;;;;;5095509;28;19908;-83
2022/04/05 05:11:03;;;;;;;;;;;10.90;99.90;;;;;;5096697;28;19908;-83
2022/04/05 05:13:31;;;;;;;;;;;11.00;99.90;;;;;;5095361;28;19962;-82
2022/04/05 05:15:56;;;;;;;;;;;11.00;99.90;;;;;;5096564;28;19951;-83
2022/04/05 05:18:22;;;;;;;;;;;11.00;99.90;;;;;;5096395;28;19963;-82
2022/04/05 05:20:47;;;;;;;;;;;11.00;99.90;;;;;;5096641;28;19917;-82
2022/04/05 05:23:13;;;;;;;;;;;11.00;99.90;;;;;;5096650;28;19908;-83
2022/04/05 05:25:38;;;;;;;;;;;11.10;99.90;;;;;;5096412;28;19912;-82
2022/04/05 05:28:04;;;;;;;;;;;11.20;99.90;;;;;;5078177;28;19916;-83
2022/04/05 05:30:30;;;;;;;;;;;11.20;99.90;;;;;;5096662;28;19908;-82
2022/04/05 05:32:55;;;;;;;;;;;11.20;99.90;;;;;;5096715;28;19948;-83
2022/04/05 05:35:21;;;;;;;;;;;11.20;99.90;;;;;;5076663;28;19915;-83
2022/04/05 05:37:48;;;;;;;;;;;11.30;99.90;;;;;;5096156;28;19909;-82
2022/04/05 05:40:14;;;;;;;;;;;11.30;99.90;;;;;;5096034;28;19951;-83
2022/04/05 05:42:49;;;;;;;;;;;11.10;99.90;;;;;;5096258;28;19986;-84
2022/04/05 05:45:15;;;;;;;;;;;11.10;99.90;;;;;;5096034;28;19915;-82
2022/04/05 05:47:40;;;;;;;;;;;11.20;99.90;;;;;;5095945;28;19908;-83
2022/04/05 05:50:06;;;;;;;;;;;11.20;99.90;;;;;;5077726;28;19908;-82
2022/04/05 05:52:32;;;;;;;;;;;11.10;99.90;;;;;;5095818;28;19957;-83
2022/04/05 05:54:57;;;;;;;;;;;11.10;99.90;;;;;;5095659;28;19962;-82
2022/04/05 05:57:23;;;;;;;;;;;11.20;99.90;;;;;;5096265;28;20369;-83
2022/04/05 05:59:49;;;;;;;;;;;11.10;99.90;;;;;;5095647;28;19918;-82
2022/04/05 06:02:14;;;;;;;;;;;11.10;99.90;;;;;;5095712;28;19912;-84
2022/04/05 06:04:40;;;;;;;;;;;11.30;99.90;;;;;;5095661;28;19914;-83
2022/04/05 06:07:05;;;;;;;;;;;11.30;99.90;;;;;;5095580;28;20280;-82
2022/04/05 06:09:31;;;;;;;;;;;11.30;99.90;;;;;;5095457;28;19908;-83
2022/04/05 06:11:56;;;;;;;;;;;11.10;99.90;;;;;;5095586;28;19908;-82
2022/04/05 06:14:22;;;;;;;;;;;11.20;99.90;;;;;;5077241;28;19908;-83
2022/04/05 06:16:48;;;;;;;;;;;11.20;99.90;;;;;;5094039;28;20381;-83
2022/04/05 06:19:13;;;;;;;;;;;11.20;99.90;;;;;;5095063;28;19927;-83
2022/04/05 06:21:39;;;;;;;;;;;11.30;99.90;;;;;;5095185;28;20262;-83
2022/04/05 06:24:05;;;;;;;;;;;11.40;99.90;;;;;;5095168;28;19908;-83
2022/04/05 06:26:30;;;;;;;;;;;11.50;99.90;;;;;;5095669;28;20249;-84
2022/04/05 06:28:56;;;;;;;;;;;11.60;99.90;;;;;;5076910;28;19915;-82
2022/04/05 06:31:22;;;;;;;;;;;11.60;99.90;;;;;;5094809;28;20376;-83
2022/04/05 06:33:48;;;;;;;;;;;11.60;99.90;;;;;;5095011;28;19916;-83
2022/04/05 06:36:15;;;;;;;;;;;11.70;99.90;;;;;;5094940;28;19963;-83
2022/04/05 06:38:40;;;;;;;;;;;11.70;99.90;;;;;;5094680;28;20276;-83
2022/04/05 06:41:06;;;;;;;;;;;11.70;99.90;;;;;;5076536;28;19912;-84
2022/04/05 06:43:32;;;;;;;;;;;11.70;99.90;;;;;;5076881;28;19990;-83
2022/04/05 06:45:58;;;;;;;;;;;11.70;99.90;;;;;;5094350;28;20336;-83
2022/04/05 06:48:25;;;;;;;;;;;11.50;99.90;;;;;;5093637;28;19991;-83
2022/04/05 06:50:50;;;;;;;;;;;11.70;99.90;;;;;;5076447;28;19946;-84
2022/04/05 06:53:17;;;;;;;;;;;11.80;99.90;;;;;;5094590;28;19915;-84
2022/04/05 06:55:43;;;;;;;;;;;11.90;99.90;;;;;;5076335;28;20265;-83
2022/04/05 06:58:11;;;;;;;;;;;11.80;99.90;;;;;;5095059;28;19961;-82
2022/04/05 07:00:37;;;;;;;;;;;11.90;99.90;;;;;;5094375;28;20422;-82
2022/04/05 07:03:04;;;;;;;;;;;11.90;99.90;;;;;;5094570;28;19962;-84
2022/04/05 07:05:33;;;;;;;;;;;12.00;99.90;;;;;;5094564;28;20447;-84
2022/04/05 07:08:01;;;;;;;;;;;12.00;99.90;;;;;;5076039;28;19912;-84
2022/04/05 07:10:27;;;;;;;;;;;12.00;99.90;;;;;;5094851;28;19991;-83
2022/04/05 07:12:52;;;;;;;;;;;12.10;99.90;;;;;;5094529;28;20355;-81
2022/04/05 07:15:18;;;;;;;;;;;12.10;99.90;;;;;;5094463;28;19991;-83
2022/04/05 07:17:44;;;;;;;;;;;12.10;99.90;;;;;;5094217;28;19964;-83
2022/04/05 07:20:10;;;;;;;;;;;12.10;99.90;;;;;;5094165;28;19912;-83
2022/04/05 07:22:36;;;;;;;;;;;12.20;99.90;;;;;;5075892;28;20355;-82
2022/04/05 07:25:02;;;;;;;;;;;12.20;99.90;;;;;;5094081;28;19917;-84
2022/04/05 07:27:27;;;;;;;;;;;12.20;99.90;;;;;;5075937;28;19908;-83
2022/04/05 07:30:03;;;;;;;;;;;12.30;99.90;;;;;;5075845;28;20389;-83
2022/04/05 07:32:38;;;;;;;;;;;12.40;99.90;;;;;;5076298;28;19916;-84
2022/04/05 07:35:04;;;;;;;;;;;12.10;99.90;;;;;;5093698;28;19988;-83
2022/04/05 07:37:30;;;;;;;;;;;12.50;99.90;;;;;;5093707;28;19962;-82
2022/04/05 07:39:58;;;;;;;;;;;12.90;99.90;;;;;;5093828;28;20326;-83
2022/04/05 07:42:24;;;;;;;;;;;13.40;99.90;;;;;;5094360;28;19962;-83
2022/04/05 07:44:50;;;;;;;;;;;13.80;99.90;;;;;;5075858;28;20280;-82
2022/04/05 07:47:15;;;;;;;;;;;13.90;99.90;;;;;;5075939;28;19908;-84
2022/04/05 07:49:41;;;;;;;;;;;13.90;99.90;;;;;;5093754;28;19908;-82
2022/04/05 07:52:09;;;;;;;;;;;13.80;99.90;;;;;;5093763;28;20384;-83
2022/04/05 07:54:35;;;;;;;;;;;13.90;99.90;;;;;;5071992;28;19948;-83
2022/04/05 07:57:02;;;;;;;;;;;14.00;99.90;;;;;;5068982;28;19963;-84
2022/04/05 07:59:31;;;;;;;;;;;14.10;99.90;;;;;;5054624;28;20002;-83
2022/04/05 08:01:59;;;;;;;;;;;13.90;99.90;;;;;;5073582;28;19917;-84
2022/04/05 08:04:25;;;;;;;;;;;13.70;99.90;;;;;;5055470;28;19962;-83
2022/04/05 08:06:50;;;;;;;;;;;13.60;99.90;;;;;;5073697;28;19995;-84
2022/04/05 08:09:16;;;;;;;;;;;13.40;99.90;;;;;;5073645;28;20097;-83
2022/04/05 08:11:44;;;;;;;;;;;13.40;99.90;;;;;;5073352;28;20232;-83
2022/04/05 08:14:20;;;;;;;;;;;13.40;99.90;;;;;;5055342;28;20385;-84
2022/04/05 08:16:45;;;;;;;;;;;13.50;99.90;;;;;;5054998;28;20363;-83
2022/04/05 08:19:13;;;;;;;;;;;13.50;99.90;;;;;;5086387;28;19951;-82
2022/04/05 08:21:39;;;;;;;;;;;13.60;99.90;;;;;;5075822;28;19922;-83
2022/04/05 08:24:05;;;;;;;;;;;13.60;99.90;;;;;;5094133;28;19908;-84
2022/04/05 08:26:36;;;;;;;;;;;13.70;99.90;;;;;;5093451;28;19942;-82
2022/04/05 08:29:02;;;;;;;;;;;13.70;99.90;;;;;;5094487;28;19912;-83
2022/04/05 08:31:27;;;;;;;;;;;13.50;99.90;;;;;;5075545;28;19966;-82
2022/04/05 08:33:53;;;;;;;;;;;13.50;99.90;;;;;;5093457;28;19915;-83
2022/04/05 08:36:19;;;;;;;;;;;13.50;99.90;;;;;;5093927;28;19918;-83
2022/04/05 08:38:44;;;;;;;;;;;13.20;99.90;;;;;;5093294;28;20375;-83
2022/04/05 08:41:10;;;;;;;;;;;13.20;99.90;;;;;;5093259;28;19941;-83
2022/04/05 08:43:37;;;;;;;;;;;13.10;99.90;;;;;;5093155;28;19908;-83
2022/04/05 08:46:05;;;;;;;;;;;13.10;99.90;;;;;;5093210;28;20333;-83
2022/04/05 08:48:34;;;;;;;;;;;13.20;99.90;;;;;;5093072;28;19928;-82
2022/04/05 08:51:00;;;;;;;;;;;13.10;99.90;;;;;;5093478;28;20045;-82
2022/04/05 08:53:26;;;;;;;;;;;13.10;99.90;;;;;;5075002;28;20002;-84
2022/04/05 08:55:51;;;;;;;;;;;13.00;99.90;;;;;;5074951;28;19908;-82
2022/04/05 08:58:17;;;;;;;;;;;12.90;99.90;;;;;;5093034;28;19915;-83
2022/04/05 09:00:43;;;;;;;;;;;12.90;99.90;;;;;;5093036;28;19912;-83
2022/04/05 09:03:09;;;;;;;;;;;12.80;99.90;;;;;;5093332;28;20403;-82
2022/04/05 09:05:38;;;;;;;;;;;12.90;99.90;;;;;;5092954;28;19908;-83
2022/04/05 09:08:16;;;;;;;;;;;13.10;99.90;;;;;;5093258;28;19916;-83
2022/04/05 09:10:42;;;;;;;;;;;13.60;99.90;;;;;;5095617;28;19908;-83
2022/04/05 09:13:12;;;;;;;;;;;14.10;99.90;;;;;;5096683;28;19908;-83
2022/04/05 09:15:37;;;;;;;;;;;14.40;99.90;;;;;;5096891;28;19915;-83
2022/04/05 09:18:04;;;;;;;;;;;14.90;99.90;;;;;;5096571;28;19916;-83
2022/04/05 09:20:30;;;;;;;;;;;15.10;99.90;;;;;;5096689;28;19919;-83
2022/04/05 09:22:57;;;;;;;;;;;14.90;99.90;;;;;;5096450;28;19908;-83
2022/04/05 09:25:23;;;;;;;;;;;14.80;99.90;;;;;;5096647;28;19909;-83
2022/04/05 09:27:52;;;;;;;;;;;14.70;99.90;;;;;;5096362;28;19916;-83
2022/04/05 09:30:21;;;;;;;;;;;14.40;99.90;;;;;;5078116;28;20023;-83
2022/04/05 09:32:48;;;;;;;;;;;14.30;99.90;;;;;;5096614;28;19908;-83
2022/04/05 09:35:18;;;;;;;;;;;14.30;99.90;;;;;;5078067;28;20382;-83
2022/04/05 09:37:44;;;;;;;;;;;14.00;99.90;;;;;;5077920;28;19912;-84
2022/04/05 09:40:39;;;;;;;;;;;13.80;99.90;;;;;;5095689;28;20041;-83
2022/04/05 09:43:09;;;;;;;;;;;13.80;99.90;;;;;;5059523;28;20380;-83
2022/04/05 09:45:50;;;;;;;;;;;13.80;99.90;;;;;;5077564;28;20428;-83
2022/04/05 09:48:17;;;;;;;;;;;13.90;99.90;;;;;;5095637;28;19915;-83
2022/04/05 09:51:02;;;;;;;;;;;13.80;99.90;;;;;;5095519;28;19946;-82
2022/04/05 09:53:47;;;;;;;;;;;13.80;99.90;;;;;;5095542;28;19916;-82
2022/04/05 09:56:20;;;;;;;;;;;13.70;99.90;;;;;;5095889;28;20013;-83
2022/04/05 09:58:47;;;;;;;;;;;13.70;99.90;;;;;;5095610;28;19908;-83
2022/04/05 10:01:12;;;;;;;;;;;14.00;99.90;;;;;;5095622;28;19912;-84
2022/04/05 10:03:39;;;;;;;;;;;14.10;99.90;;;;;;5095632;28;19994;-83
2022/04/05 10:06:05;;;;;;;;;;;14.10;99.90;;;;;;5095591;28;19908;-83
2022/04/05 10:08:31;;;;;;;;;;;13.90;99.90;;;;;;5095707;28;19979;-83
2022/04/05 10:10:57;;;;;;;;;;;13.80;99.90;;;;;;5077298;28;20388;-84
2022/04/05 10:13:22;;;;;;;;;;;13.80;99.90;;;;;;5095422;28;19955;-83
2022/04/05 10:15:48;;;;;;;;;;;13.80;99.90;;;;;;5095440;28;20010;-82
2022/04/05 10:18:15;;;;;;;;;;;13.80;99.90;;;;;;5095306;28;19916;-84
2022/04/05 10:20:41;;;;;;;;;;;13.80;99.90;;;;;;5095097;28;20385;-83
2022/04/05 10:23:07;;;;;;;;;;;14.00;99.90;;;;;;5094799;28;20441;-83
2022/04/05 10:25:34;;;;;;;;;;;14.10;99.90;;;;;;5095363;28;19908;-83
2022/04/05 10:27:59;;;;;;;;;;;14.00;99.90;;;;;;5095080;28;20542;-83
2022/04/05 10:30:30;;;;;;;;;;;14.20;99.90;;;;;;5095404;28;19931;-83
2022/04/05 10:32:55;;;;;;;;;;;14.60;99.90;;;;;;5076692;28;19908;-83
2022/04/05 10:35:23;;;;;;;;;;;14.60;99.90;;;;;;5095060;28;20287;-84
2022/04/05 10:37:49;;;;;;;;;;;14.50;99.90;;;;;;5094945;28;19977;-84
2022/04/05 10:40:16;;;;;;;;;;;14.40;99.90;;;;;;5094895;28;20353;-83
2022/04/05 10:42:44;;;;;;;;;;;14.40;99.90;;;;;;5076603;28;19912;-84
2022/04/05 10:45:13;;;;;;;;;;;14.20;99.90;;;;;;5076628;28;19908;-84
2022/04/05 10:47:58;;;;;;;;;;;14.20;99.90;;;;;;5094791;28;19915;-83
2022/04/05 10:50:24;;;;;;;;;;;14.30;99.90;;;;;;5094682;28;20311;-83
2022/04/05 10:53:09;;;;;;;;;;;14.40;99.90;;;;;;5094634;28;19912;-83
2022/04/05 10:55:55;;;;;;;;;;;14.50;99.90;;;;;;5094674;28;19915;-84
2022/04/05 10:58:20;;;;;;;;;;;14.60;99.90;;;;;;5094411;28;19943;-82
2022/04/05 11:00:47;;;;;;;;;;;14.80;99.90;;;;;;5094493;28;19955;-83
2022/04/05 11:03:13;;;;;;;;;;;14.70;99.90;;;;;;5094590;28;20424;-82
2022/04/05 11:05:39;;;;;;;;;;;15.00;99.90;;;;;;5094984;28;19908;-84
2022/04/05 11:08:07;;;;;;;;;;;14.90;99.90;;;;;;5094397;28;19908;-83
2022/04/05 11:10:41;;;;;;;;;;;14.80;99.90;;;;;;5094527;28;19908;-82
2022/04/05 11:13:07;;;;;;;;;;;14.80;99.90;;;;;;5094478;28;20025;-83
2022/04/05 11:15:42;;;;;;;;;;;14.80;99.90;;;;;;5094254;28;19951;-83
2022/04/05 11:18:09;;;;;;;;;;;15.00;99.90;;;;;;5094022;28;19920;-83
2022/04/05 11:20:35;;;;;;;;;;;15.00;99.90;;;;;;5094410;28;20406;-84
2022/04/05 11:23:02;;;;;;;;;;;15.20;99.90;;;;;;5094191;28;19909;-84
2022/04/05 11:25:28;;;;;;;;;;;15.10;99.90;;;;;;5075922;28;19915;-83
2022/04/05 11:27:55;;;;;;;;;;;15.00;99.90;;;;;;5094079;28;19908;-83
2022/04/05 11:30:27;;;;;;;;;;;15.30;99.90;;;;;;5094221;28;19947;-83
2022/04/05 11:33:12;;;;;;;;;;;16.00;99.90;;;;;;5094220;28;20364;-83
2022/04/05 11:35:39;;;;;;;;;;;16.20;99.90;;;;;;5093939;28;19932;-84
2022/04/05 11:38:06;;;;;;;;;;;15.90;99.90;;;;;;5094328;28;19908;-84
2022/04/05 11:40:31;;;;;;;;;;;15.50;99.90;;;;;;5093783;28;19954;-83
2022/04/05 11:43:00;;;;;;;;;;;15.70;99.90;;;;;;5093993;28;19940;-84
2022/04/05 11:45:26;;;;;;;;;;;15.90;99.90;;;;;;5094070;28;19908;-83
2022/04/05 11:47:52;;;;;;;;;;;16.30;99.90;;;;;;5093756;28;19914;-84
2022/04/05 11:50:18;;;;;;;;;;;17.00;99.90;;;;;;5093890;28;19971;-83
2022/04/05 11:52:44;;;;;;;;;;;17.10;99.90;;;;;;5093934;28;20391;-84
2022/04/05 11:58:03;;;;;;;;;;;17.10;99.90;;;;;;5093907;28;19916;-83
2022/04/05 12:00:29;;;;;;;;;;;17.20;99.90;;;;;;5093577;28;20304;-83
2022/04/05 12:03:01;;;;;;;;;;;17.40;99.90;;;;;;5093602;28;19908;-83
2022/04/05 12:05:43;;;;;;;;;;;17.90;99.90;;;;;;5075486;28;19908;-83
2022/04/05 12:08:09;;;;;;;;;;;17.90;99.90;;;;;;5093669;28;20489;-83
2022/04/05 12:10:35;;;;;;;;;;;17.80;99.90;;;;;;5075416;28;20280;-83
2022/04/05 12:13:00;;;;;;;;;;;17.80;99.90;;;;;;5075421;28;19915;-83
2022/04/05 12:15:27;;;;;;;;;;;18.30;99.90;;;;;;5093973;28;20059;-83
2022/04/05 12:18:11;;;;;;;;;;;21.00;99.90;;;;;;5093469;28;19908;-84
2022/04/05 12:20:37;;;;;;;;;;;24.20;92.40;;;;;;5093489;28;19912;-84
2022/04/05 12:23:02;;;;;;;;;;;23.70;85.30;;;;;;5093728;28;20325;-84
2022/04/05 12:25:28;;;;;;;;;;;24.10;81.30;;;;;;5075369;28;19908;-83
2022/04/05 12:27:56;;;;;;;;;;;23.70;79.50;;;;;;5093499;28;19908;-84
2022/04/05 12:30:29;;;;;;;;;;;22.30;83.60;;;;;;5093511;28;19909;-84
2022/04/05 12:32:55;;;;;;;;;;;21.30;85.10;;;;;;5093849;28;19915;-84
2022/04/05 12:35:21;;;;;;;;;;;20.50;87.80;;;;;;5093731;28;19908;-83
2022/04/05 12:37:46;;;;;;;;;;;19.70;88.80;;;;;;5093487;28;19908;-84
2022/04/05 12:40:22;;;;;;;;;;;19.30;90.00;;;;;;5093429;28;20326;-84
2022/04/05 12:42:48;;;;;;;;;;;19.20;90.60;;;;;;5093527;28;20357;-83
2022/04/05 12:45:13;;;;;;;;;;;18.70;91.60;;;;;;5095316;28;19908;-83
2022/04/05 12:47:44;;;;;;;;;;;18.50;92.60;;;;;;5097466;28;20265;-83
2022/04/05 12:50:10;;;;;;;;;;;17.90;93.10;;;;;;5097115;28;20360;-83
2022/04/05 12:52:36;;;;;;;;;;;17.90;94.00;;;;;;5096986;28;19915;-84
2022/04/05 12:55:17;;;;;;;;;;;18.00;93.20;;;;;;5096931;28;19908;-83
2022/04/05 12:57:47;;;;;;;;;;;18.00;93.40;;;;;;5097173;28;19908;-83
2022/04/05 13:00:15;;;;;;;;;;;17.90;93.70;;;;;;5096945;28;20412;-83
2022/04/05 13:02:41;;;;;;;;;;;17.60;94.20;;;;;;5097081;28;20011;-83
2022/04/05 13:08:00;;;;;;;;;;;18.10;94.40;;;;;;5096624;28;19915;-83
2022/04/05 13:10:33;;;;;;;;;;;17.70;93.70;;;;;;5078431;28;20319;-83
2022/04/05 13:13:12;;;;;;;;;;;17.60;94.50;;;;;;5097184;28;19908;-84
2022/04/05 13:15:37;;;;;;;;;;;17.80;94.00;;;;;;5078450;28;20334;-83
2022/04/05 13:18:04;;;;;;;;;;;18.10;93.60;;;;;;5096598;28;19922;-83
2022/04/05 13:20:30;;;;;;;;;;;18.50;92.50;;;;;;5096660;28;19912;-84
2022/04/05 13:23:02;;;;;;;;;;;18.80;92.00;;;;;;5096429;28;20438;-83
2022/04/05 13:25:32;;;;;;;;;;;18.90;91.80;;;;;;5096473;28;19958;-84
2022/04/05 13:27:58;;;;;;;;;;;18.90;92.30;;;;;;5096537;28;19943;-83
2022/04/05 13:30:24;;;;;;;;;;;18.90;91.50;;;;;;5096389;28;19991;-83
2022/04/05 13:33:03;;;;;;;;;;;18.70;92.40;;;;;;5078096;28;20356;-84
2022/04/05 13:35:28;;;;;;;;;;;21.20;92.70;;;;;;5096256;28;19917;-84
2022/04/05 13:37:54;;;;;;;;;;;23.10;82.50;;;;;;5096297;28;19908;-85
2022/04/05 13:40:20;;;;;;;;;;;22.70;81.20;;;;;;5096167;28;19912;-83
2022/04/05 13:42:45;;;;;;;;;;;22.00;81.50;;;;;;5077789;28;19912;-84
2022/04/05 13:45:11;;;;;;;;;;;21.40;81.90;;;;;;5096072;28;20440;-83
2022/04/05 13:47:38;;;;;;;;;;;21.00;82.00;;;;;;5096069;28;19908;-83
2022/04/05 13:50:04;;;;;;;;;;;21.70;82.00;;;;;;5077792;28;19997;-83
2022/04/05 13:52:29;;;;;;;;;;;21.80;82.20;;;;;;5095942;28;19955;-83
2022/04/05 13:54:55;;;;;;;;;;;21.50;81.20;;;;;;5077598;28;19915;-84
2022/04/05 13:57:21;;;;;;;;;;;21.50;82.90;;;;;;5076444;28;20331;-84
2022/04/05 13:59:46;;;;;;;;;;;21.80;80.70;;;;;;5096075;28;19908;-84
2022/04/05 14:02:12;;;;;;;;;;;26.40;76.20;;;;;;5095923;28;19958;-84
2022/04/05 14:04:38;;;;;;;;;;;29.10;63.10;;;;;;5077574;28;19912;-84
2022/04/05 14:07:05;;;;;;;;;;;29.70;61.00;;;;;;5095677;28;19908;-84
2022/04/05 14:09:30;;;;;;;;;;;32.60;53.70;;;;;;5077529;28;20245;-86
2022/04/05 14:11:56;;;;;;;;;;;31.00;49.20;;;;;;5095589;28;19962;-85
2022/04/05 14:14:22;;;;;;;;;;;32.20;50.40;;;;;;5095631;28;19912;-84
2022/04/05 14:16:47;;;;;;;;;;;34.60;48.10;;;;;;5077390;28;19999;-84
2022/04/05 14:19:13;;;;;;;;;;;31.40;46.70;;;;;;5077064;28;20292;-84
2022/04/05 14:21:38;;;;;;;;;;;32.10;46.40;;;;;;5095485;28;20261;-85
2022/04/05 14:24:04;;;;;;;;;;;27.90;49.00;;;;;;5095343;28;19915;-84